createdAt,value
2019-02-08T00:02:25.039Z,2.87
2019-02-08T00:04:55.898Z,2.86
2019-02-08T00:07:26.446Z,2.84
2019-02-08T00:09:57.216Z,2.86
2019-02-08T00:12:27.895Z,2.82
2019-02-08T00:15:00.403Z,2.81
2019-02-08T00:17:31.320Z,2.85
2019-02-08T00:20:02.259Z,2.86
2019-02-08T00:22:32.855Z,2.88
2019-02-08T00:25:11.011Z,2.90
2019-02-08T00:27:43.309Z,2.89
2019-02-08T00:30:24.935Z,2.81
2019-02-08T00:32:55.856Z,2.82
2019-02-08T00:35:27.299Z,2.80
2019-02-08T00:37:57.903Z,2.84
2019-02-08T00:40:28.915Z,2.81
2019-02-08T00:43:00.737Z,2.82
2019-02-08T00:45:31.178Z,2.74
2019-02-08T00:48:01.585Z,2.80
2019-02-08T00:50:33.511Z,2.77
2019-02-08T00:53:04.665Z,2.74
2019-02-08T00:55:36.285Z,2.70
2019-02-08T00:58:07.398Z,2.77
2019-02-08T01:00:38.591Z,2.80
2019-02-08T01:03:09.320Z,2.80
2019-02-08T01:05:41.629Z,2.78
2019-02-08T01:08:13.015Z,2.82
2019-02-08T01:10:46.115Z,2.80
2019-02-08T01:13:16.843Z,2.76
2019-02-08T01:15:48.187Z,2.71
2019-02-08T01:18:18.624Z,2.67
2019-02-08T01:20:49.374Z,2.70
2019-02-08T01:23:19.619Z,2.77
2019-02-08T01:25:49.771Z,2.77
2019-02-08T01:28:20.637Z,2.76
2019-02-08T01:30:52.012Z,2.78
2019-02-08T01:33:22.600Z,2.79
2019-02-08T01:35:53.142Z,2.76
2019-02-08T01:38:23.614Z,2.69
2019-02-08T01:40:55.836Z,2.70
2019-02-08T01:43:26.293Z,2.66
2019-02-08T01:45:56.749Z,2.65
2019-02-08T01:48:27.680Z,2.70
2019-02-08T01:50:58.079Z,2.68
2019-02-08T01:53:28.706Z,2.62
2019-02-08T01:55:59.296Z,2.64
2019-02-08T01:58:30.093Z,2.63
2019-02-08T02:01:00.716Z,2.63
2019-02-08T02:03:31.348Z,2.59
2019-02-08T02:06:02.344Z,2.58
2019-02-08T02:08:33.110Z,2.52
2019-02-08T02:11:03.614Z,2.57
2019-02-08T02:13:34.043Z,2.60
2019-02-08T02:16:04.945Z,2.60
2019-02-08T02:18:35.304Z,2.59
2019-02-08T02:21:05.709Z,2.55
2019-02-08T02:23:36.759Z,2.59
2019-02-08T02:26:07.194Z,2.62
2019-02-08T02:28:37.802Z,2.60
2019-02-08T02:31:09.424Z,2.65
2019-02-08T02:33:39.869Z,2.50
2019-02-08T02:36:10.488Z,2.57
2019-02-08T02:38:41.534Z,2.57
2019-02-08T02:41:12.061Z,2.61
2019-02-08T02:43:42.580Z,2.61
2019-02-08T02:46:13.401Z,2.53
2019-02-08T02:48:44.096Z,2.45
2019-02-08T02:51:15.102Z,2.47
2019-02-08T02:53:45.940Z,2.45
2019-02-08T02:56:16.644Z,2.46
2019-02-08T02:58:48.168Z,2.42
2019-02-08T03:01:18.909Z,2.42
2019-02-08T03:03:49.724Z,2.41
2019-02-08T03:06:20.142Z,2.42
2019-02-08T03:08:50.677Z,2.45
2019-02-08T03:11:21.161Z,2.42
2019-02-08T03:13:52.035Z,2.35
2019-02-08T03:16:22.825Z,2.36
2019-02-08T03:18:53.282Z,2.38
2019-02-08T03:21:23.640Z,2.40
2019-02-08T03:23:54.208Z,2.38
2019-02-08T03:26:24.624Z,2.41
2019-02-08T03:28:55.305Z,2.37
2019-02-08T03:31:27.116Z,2.38
2019-02-08T03:33:58.671Z,2.39
2019-02-08T03:36:29.277Z,2.38
2019-02-08T03:39:00.020Z,2.36
2019-02-08T03:41:31.283Z,2.41
2019-02-08T03:44:02.215Z,2.42
2019-02-08T03:46:32.850Z,2.34
2019-02-08T03:49:04.748Z,2.32
2019-02-08T03:51:35.464Z,2.35
2019-02-08T03:54:06.251Z,2.33
2019-02-08T03:56:37.103Z,2.31
2019-02-08T03:59:07.665Z,2.33
2019-02-08T04:01:38.325Z,2.32
2019-02-08T04:04:17.850Z,2.31
2019-02-08T04:06:48.527Z,2.34
2019-02-08T04:09:19.093Z,2.33
2019-02-08T04:11:49.690Z,2.29
2019-02-08T04:14:20.200Z,2.26
2019-02-08T04:16:51.138Z,2.27
2019-02-08T04:19:22.031Z,2.30
2019-02-08T04:21:52.902Z,2.29
2019-02-08T04:24:29.732Z,2.30
2019-02-08T04:26:55.853Z,2.31
2019-02-08T04:29:26.409Z,2.29
2019-02-08T04:31:58.006Z,2.28
2019-02-08T04:34:28.704Z,2.26
2019-02-08T04:37:00.036Z,2.25
2019-02-08T04:39:30.731Z,2.22
2019-02-08T04:42:01.601Z,2.26
2019-02-08T04:44:33.092Z,2.27
2019-02-08T04:47:04.144Z,2.25
2019-02-08T04:49:35.315Z,2.19
2019-02-08T04:52:05.752Z,2.21
2019-02-08T04:54:38.352Z,2.20
2019-02-08T04:57:10.674Z,2.22
2019-02-08T04:59:41.334Z,2.13
2019-02-08T05:02:13.115Z,2.15
2019-02-08T05:04:44.038Z,2.12
2019-02-08T05:07:15.138Z,2.10
2019-02-08T05:09:45.618Z,2.07
2019-02-08T05:12:16.470Z,2.07
2019-02-08T05:14:47.207Z,2.10
2019-02-08T05:17:17.812Z,2.07
2019-02-08T05:19:48.766Z,2.05
2019-02-08T05:22:19.315Z,2.08
2019-02-08T05:24:49.885Z,2.09
2019-02-08T05:27:20.225Z,2.11
2019-02-08T05:29:52.541Z,2.12
2019-02-08T05:32:24.387Z,2.11
2019-02-08T05:34:54.998Z,2.18
2019-02-08T05:37:25.396Z,2.21
2019-02-08T05:39:57.393Z,2.25
2019-02-08T05:42:29.257Z,2.27
2019-02-08T05:44:59.729Z,2.28
2019-02-08T05:47:30.307Z,2.29
2019-02-08T05:50:01.011Z,2.28
2019-02-08T05:52:31.731Z,2.28
2019-02-08T05:55:03.477Z,2.33
2019-02-08T05:57:36.260Z,2.33
2019-02-08T06:00:13.191Z,2.37
2019-02-08T06:02:44.126Z,2.40
2019-02-08T06:05:15.325Z,2.37
2019-02-08T06:07:46.233Z,2.40
2019-02-08T06:10:17.270Z,2.38
2019-02-08T06:12:48.074Z,2.35
2019-02-08T06:15:20.088Z,2.38
2019-02-08T06:17:50.883Z,2.32
2019-02-08T06:20:21.850Z,2.35
2019-02-08T06:22:53.303Z,2.41
2019-02-08T06:25:24.910Z,2.40
2019-02-08T06:27:55.690Z,2.40
2019-02-08T06:30:28.091Z,2.42
2019-02-08T06:32:59.687Z,2.43
2019-02-08T06:35:31.049Z,2.44
2019-02-08T06:38:01.511Z,2.43
2019-02-08T06:40:32.467Z,2.46
2019-02-08T06:43:03.175Z,2.47
2019-02-08T06:45:33.916Z,2.44
2019-02-08T06:48:04.888Z,2.52
2019-02-08T06:50:35.451Z,2.57
2019-02-08T06:53:06.141Z,2.63
2019-02-08T06:55:39.080Z,2.64
2019-02-08T06:58:34.365Z,2.71
2019-02-08T07:01:16.382Z,2.73
2019-02-08T07:03:53.757Z,2.72
2019-02-08T07:06:44.573Z,2.80
2019-02-08T07:09:52.344Z,2.76
2019-02-08T07:12:34.662Z,2.77
2019-02-08T07:15:37.242Z,2.76
2019-02-08T07:18:25.589Z,2.80
2019-02-08T07:21:08.330Z,2.81
2019-02-08T07:24:07.822Z,2.92
2019-02-08T07:27:00.155Z,2.98
2019-02-08T07:32:35.095Z,2.99
2019-02-08T07:35:24.829Z,3.00
2019-02-08T07:38:20.936Z,3.03
2019-02-08T07:41:13.461Z,3.17
2019-02-08T07:44:15.175Z,3.15
2019-02-08T07:47:10.989Z,3.21
2019-02-08T07:50:08.105Z,3.23
2019-02-08T07:53:04.544Z,3.30
2019-02-08T07:55:52.991Z,3.35
2019-02-08T07:58:54.604Z,3.35
2019-02-08T08:01:43.098Z,3.29
2019-02-08T08:04:32.465Z,3.48
2019-02-08T08:07:20.825Z,3.49
2019-02-08T08:10:19.622Z,3.60
2019-02-08T08:13:12.474Z,3.67
2019-02-08T08:16:05.025Z,3.70
2019-02-08T08:18:48.971Z,3.72
2019-02-08T08:21:33.524Z,3.69
2019-02-08T08:24:26.729Z,3.75
2019-02-08T08:27:16.816Z,3.72
2019-02-08T08:29:57.356Z,3.76
2019-02-08T08:33:06.481Z,3.83
2019-02-08T08:36:10.191Z,3.85
2019-02-08T08:39:16.045Z,4.07
2019-02-08T08:42:14.527Z,4.24
2019-02-08T08:45:28.790Z,4.14
2019-02-08T08:48:27.121Z,4.37
2019-02-08T08:51:32.318Z,4.38
2019-02-08T08:54:55.538Z,4.25
2019-02-08T08:57:56.549Z,4.33
2019-02-08T09:01:01.747Z,4.39
2019-02-08T09:04:11.714Z,4.51
2019-02-08T09:07:34.588Z,4.58
2019-02-08T09:10:38.917Z,4.59
2019-02-08T09:14:11.712Z,4.60
2019-02-08T09:17:16.742Z,4.63
2019-02-08T09:20:37.046Z,4.66
2019-02-08T09:23:46.679Z,4.78
2019-02-08T09:26:45.314Z,4.90
2019-02-08T09:30:05.510Z,5.01
2019-02-08T09:33:13.229Z,5.05
2019-02-08T09:36:22.931Z,4.99
2019-02-08T09:39:47.123Z,4.93
2019-02-08T09:42:53.786Z,4.98
2019-02-08T09:45:57.505Z,4.97
2019-02-08T09:49:08.771Z,5.13
2019-02-08T09:52:06.247Z,5.16
2019-02-08T09:55:22.042Z,5.20
2019-02-08T09:58:45.023Z,5.30
2019-02-08T10:01:51.782Z,5.41
2019-02-08T10:04:57.862Z,5.48
2019-02-08T10:08:06.037Z,5.50
2019-02-08T10:11:21.846Z,5.45
2019-02-08T10:14:41.007Z,5.64
2019-02-08T10:17:46.528Z,5.86
2019-02-08T10:20:57.764Z,5.83
2019-02-08T10:23:56.154Z,5.70
2019-02-08T10:27:12.218Z,5.85
2019-02-08T10:30:25.262Z,6.03
2019-02-08T10:33:51.079Z,5.95
2019-02-08T10:36:49.769Z,6.05
2019-02-08T10:40:05.570Z,6.03
2019-02-08T10:43:24.536Z,6.09
2019-02-08T10:46:27.024Z,5.93
2019-02-08T10:49:47.637Z,5.92
2019-02-08T10:53:11.208Z,6.04
2019-02-08T10:56:25.126Z,5.94
2019-02-08T10:59:38.508Z,5.94
2019-02-08T11:02:49.245Z,6.11
2019-02-08T11:06:07.593Z,6.00
2019-02-08T11:09:15.117Z,6.08
2019-02-08T11:12:20.440Z,6.37
2019-02-08T11:15:38.712Z,6.60
2019-02-08T11:18:40.656Z,6.52
2019-02-08T11:21:11.339Z,6.57
2019-02-08T11:23:42.007Z,6.67
2019-02-08T11:26:13.303Z,6.82
2019-02-08T11:28:43.909Z,6.91
2019-02-08T11:31:14.550Z,6.99
2019-02-08T11:33:45.289Z,7.09
2019-02-08T11:36:17.803Z,7.16
2019-02-08T11:38:49.268Z,7.08
2019-02-08T11:41:19.642Z,7.09
2019-02-08T11:43:50.184Z,7.15
2019-02-08T11:46:20.931Z,6.94
2019-02-08T11:48:51.301Z,6.83
2019-02-08T11:51:21.774Z,6.56
2019-02-08T11:53:52.434Z,6.68
2019-02-08T11:56:29.894Z,6.71
2019-02-08T11:58:55.812Z,6.82
2019-02-08T12:01:29.236Z,6.70
2019-02-08T12:03:59.800Z,6.69
2019-02-08T12:06:30.380Z,6.72
2019-02-08T12:09:01.754Z,6.85
2019-02-08T12:11:32.473Z,6.89
2019-02-08T12:14:03.307Z,6.67
2019-02-08T12:19:04.016Z,6.62
2019-02-08T12:21:34.904Z,6.62
2019-02-08T12:24:07.707Z,6.45
2019-02-08T12:26:38.479Z,6.44
2019-02-08T12:29:10.210Z,6.61
2019-02-08T12:31:43.488Z,6.46
2019-02-08T12:34:14.187Z,6.44
2019-02-08T12:36:47.227Z,6.46
2019-02-08T12:39:19.504Z,6.29
2019-02-08T12:41:50.158Z,6.35
2019-02-08T12:44:21.045Z,6.31
2019-02-08T12:46:51.541Z,6.34
2019-02-08T12:49:21.743Z,6.47
2019-02-08T12:51:55.050Z,6.44
2019-02-08T12:54:26.739Z,6.47
2019-02-08T12:56:57.731Z,6.42
2019-02-08T12:59:28.662Z,6.23
2019-02-08T13:01:59.070Z,6.29
2019-02-08T13:04:29.858Z,6.35
2019-02-08T13:07:00.494Z,6.35
2019-02-08T13:09:31.314Z,6.36
2019-02-08T13:12:01.798Z,6.30
2019-02-08T13:14:32.616Z,6.30
2019-02-08T13:17:02.910Z,6.35
2019-02-08T13:19:33.522Z,6.45
2019-02-08T13:22:04.024Z,6.41
2019-02-08T13:24:34.674Z,6.44
2019-02-08T13:27:05.484Z,6.22
2019-02-08T13:29:35.997Z,6.18
2019-02-08T13:32:08.832Z,6.28
2019-02-08T13:34:39.706Z,6.30
2019-02-08T13:37:11.765Z,6.33
2019-02-08T13:39:43.777Z,6.40
2019-02-08T13:42:15.541Z,6.44
2019-02-08T13:44:47.387Z,6.52
2019-02-08T13:47:18.567Z,6.43
2019-02-08T13:49:49.624Z,6.52
2019-02-08T13:52:20.948Z,6.28
2019-02-08T13:54:51.862Z,5.90
2019-02-08T13:57:22.662Z,5.76
2019-02-08T13:59:53.170Z,5.65
2019-02-08T14:02:23.774Z,5.43
2019-02-08T14:04:54.286Z,5.37
2019-02-08T14:07:24.699Z,5.24
2019-02-08T14:09:55.531Z,5.21
2019-02-08T14:12:26.034Z,5.25
2019-02-08T14:14:56.781Z,5.24
2019-02-08T14:17:28.621Z,5.14
2019-02-08T14:19:58.972Z,5.13
2019-02-08T14:22:29.782Z,5.18
2019-02-08T14:25:00.315Z,5.14
2019-02-08T14:27:30.908Z,5.17
2019-02-08T14:30:01.464Z,5.08
2019-02-08T14:32:31.950Z,5.02
2019-02-08T14:35:02.383Z,4.97
2019-02-08T14:37:34.077Z,4.91
2019-02-08T14:40:05.179Z,4.90
2019-02-08T14:42:35.891Z,4.93
2019-02-08T14:45:08.196Z,4.96
2019-02-08T14:47:39.083Z,4.91
2019-02-08T14:50:11.108Z,4.84
2019-02-08T14:52:41.639Z,4.79
2019-02-08T14:55:12.627Z,4.74
2019-02-08T14:57:43.104Z,4.76
2019-02-08T15:00:14.858Z,4.71
2019-02-08T15:02:46.035Z,4.69
2019-02-08T15:05:17.451Z,4.72
2019-02-08T15:07:51.462Z,4.72
2019-02-08T15:10:28.840Z,4.69
2019-02-08T15:13:01.844Z,4.67
2019-02-08T15:15:32.490Z,4.59
2019-02-08T15:18:03.660Z,4.53
2019-02-08T15:20:35.664Z,4.42
2019-02-08T15:23:06.935Z,4.42
2019-02-08T15:25:37.717Z,4.40
2019-02-08T15:28:08.958Z,4.38
2019-02-08T15:30:41.047Z,4.33
2019-02-08T15:33:11.865Z,4.27
2019-02-08T15:35:44.149Z,4.32
2019-02-08T15:38:16.077Z,4.36
2019-02-08T15:40:50.566Z,4.34
2019-02-08T15:43:22.789Z,4.35
2019-02-08T15:45:57.718Z,4.36
2019-02-08T15:48:28.754Z,4.34
2019-02-08T15:50:59.343Z,4.25
2019-02-08T15:53:29.903Z,4.25
2019-02-08T15:56:10.809Z,4.20
2019-02-08T15:58:44.279Z,4.14
2019-02-08T16:01:15.568Z,4.16
2019-02-08T16:03:46.233Z,4.19
2019-02-08T16:06:17.230Z,4.18
2019-02-08T16:08:48.392Z,4.18
2019-02-08T16:11:18.979Z,4.18
2019-02-08T16:13:50.030Z,4.16
2019-02-08T16:16:20.990Z,4.02
2019-02-08T16:18:51.751Z,3.97
2019-02-08T16:21:22.434Z,3.92
2019-02-08T16:23:53.080Z,4.00
2019-02-08T16:26:24.207Z,3.90
2019-02-08T16:28:56.197Z,3.93
2019-02-08T16:31:26.556Z,3.88
2019-02-08T16:33:58.034Z,3.84
2019-02-08T16:36:30.266Z,3.88
2019-02-08T16:39:01.949Z,3.88
2019-02-08T16:41:33.480Z,3.80
2019-02-08T16:44:04.003Z,3.80
2019-02-08T16:46:34.856Z,3.73
2019-02-08T16:49:05.573Z,3.71
2019-02-08T16:51:36.674Z,3.76
2019-02-08T16:54:08.789Z,3.75
2019-02-08T16:56:38.552Z,3.71
2019-02-08T16:59:09.515Z,3.68
2019-02-08T17:01:40.541Z,3.66
2019-02-08T17:04:14.701Z,3.70
2019-02-08T17:06:45.775Z,3.63
2019-02-08T17:09:17.946Z,3.65
2019-02-08T17:11:49.110Z,3.61
2019-02-08T17:14:20.113Z,3.57
2019-02-08T17:16:51.053Z,3.62
2019-02-08T17:19:21.805Z,3.61
2019-02-08T17:21:54.247Z,3.64
2019-02-08T17:24:25.142Z,3.64
2019-02-08T17:26:56.187Z,3.60
2019-02-08T17:29:28.534Z,3.63
2019-02-08T17:31:59.861Z,3.57
2019-02-08T17:34:30.478Z,3.54
2019-02-08T17:37:01.563Z,3.56
2019-02-08T17:39:33.368Z,3.57
2019-02-08T17:42:04.022Z,3.50
2019-02-08T17:44:34.868Z,3.53
2019-02-08T17:47:06.003Z,3.49
2019-02-08T17:49:36.623Z,3.50
2019-02-08T17:52:07.718Z,3.47
2019-02-08T17:54:38.212Z,3.46
2019-02-08T17:57:08.953Z,3.54
2019-02-08T17:59:40.718Z,3.54
2019-02-08T18:02:11.507Z,3.48
2019-02-08T18:04:42.752Z,3.43
2019-02-08T18:07:13.762Z,3.47
2019-02-08T18:09:44.600Z,3.36
2019-02-08T18:12:15.502Z,3.45
2019-02-08T18:14:46.214Z,3.43
2019-02-08T18:17:17.680Z,3.47
2019-02-08T18:19:48.330Z,3.35
2019-02-08T18:22:19.310Z,3.32
2019-02-08T18:24:50.001Z,3.34
2019-02-08T18:27:23.371Z,3.31
2019-02-08T18:29:53.865Z,3.29
2019-02-08T18:32:24.543Z,3.28
2019-02-08T18:34:55.595Z,3.38
2019-02-08T18:37:26.214Z,3.39
2019-02-08T18:39:57.549Z,3.38
2019-02-08T18:42:28.709Z,3.37
2019-02-08T18:44:59.275Z,3.43
2019-02-08T18:47:29.813Z,3.40
2019-02-08T18:50:00.274Z,3.38
2019-02-08T18:52:30.838Z,3.37
2019-02-08T18:55:01.311Z,3.38
2019-02-08T18:57:31.876Z,3.37
2019-02-08T19:00:02.132Z,3.37
2019-02-08T19:02:32.867Z,3.37
2019-02-08T19:05:03.380Z,3.43
2019-02-08T19:07:33.814Z,3.37
2019-02-08T19:10:04.718Z,3.42
2019-02-08T19:12:35.450Z,3.32
2019-02-08T19:15:07.809Z,3.32
2019-02-08T19:17:38.188Z,3.26
2019-02-08T19:20:10.670Z,3.34
2019-02-08T19:22:41.606Z,3.35
2019-02-08T19:25:18.827Z,3.38
2019-02-08T19:27:49.878Z,3.35
2019-02-08T19:30:22.962Z,3.36
2019-02-08T19:32:54.120Z,3.40
2019-02-08T19:35:24.916Z,3.33
2019-02-08T19:37:56.212Z,3.24
2019-02-08T19:40:31.147Z,3.25
2019-02-08T19:43:01.524Z,3.36
2019-02-08T19:45:32.814Z,3.35
2019-02-08T19:48:04.599Z,3.44
2019-02-08T19:50:37.629Z,3.45
2019-02-08T19:53:10.619Z,3.32
2019-02-08T19:55:41.997Z,3.32
2019-02-08T19:58:13.142Z,3.34
2019-02-08T20:00:44.397Z,3.36
2019-02-08T20:03:15.155Z,3.30
2019-02-08T20:05:46.471Z,3.34
2019-02-08T20:08:17.177Z,3.34
2019-02-08T20:10:49.138Z,3.34
2019-02-08T20:13:19.917Z,3.36
2019-02-08T20:15:50.950Z,3.41
2019-02-08T20:18:21.791Z,3.42
2019-02-08T20:20:53.893Z,3.42
2019-02-08T20:23:24.295Z,3.48
2019-02-08T20:25:54.763Z,3.48
2019-02-08T20:28:26.557Z,3.59
2019-02-08T20:30:57.134Z,3.66
2019-02-08T20:33:27.658Z,3.60
2019-02-08T20:35:58.334Z,3.57
2019-02-08T20:38:29.346Z,3.71
2019-02-08T20:41:01.002Z,3.75
2019-02-08T20:43:31.490Z,3.72
2019-02-08T20:46:01.963Z,3.70
2019-02-08T20:48:32.680Z,3.75
2019-02-08T20:51:03.239Z,3.72
2019-02-08T20:53:33.901Z,3.52
2019-02-08T20:56:04.958Z,3.53
2019-02-08T20:58:35.668Z,3.51
2019-02-08T21:01:06.960Z,3.43
2019-02-08T21:03:37.619Z,3.43
2019-02-08T21:06:08.691Z,3.27
2019-02-08T21:08:39.583Z,3.34
2019-02-08T21:11:10.277Z,3.19
2019-02-08T21:13:40.747Z,3.15
2019-02-08T21:16:11.429Z,3.18
2019-02-08T21:18:41.950Z,3.11
2019-02-08T21:21:12.715Z,3.15
2019-02-08T21:23:43.390Z,3.07
2019-02-08T21:26:14.090Z,3.03
2019-02-08T21:28:45.211Z,3.07
2019-02-08T21:31:15.607Z,2.95
2019-02-08T21:33:46.170Z,2.93
2019-02-08T21:36:17.506Z,2.81
2019-02-08T21:38:48.220Z,2.80
2019-02-08T21:41:19.894Z,2.74
2019-02-08T21:43:50.713Z,2.73
2019-02-08T21:46:21.343Z,2.71
2019-02-08T21:48:51.987Z,2.55
2019-02-08T21:51:23.476Z,2.47
2019-02-08T21:53:53.845Z,2.44
2019-02-08T21:56:24.448Z,2.32
2019-02-08T21:58:55.219Z,2.23
2019-02-08T22:01:25.589Z,2.14
2019-02-08T22:03:56.130Z,2.15
2019-02-08T22:06:26.720Z,2.16
2019-02-08T22:08:57.473Z,2.19
2019-02-08T22:11:27.728Z,2.16
2019-02-08T22:13:58.014Z,2.28
2019-02-08T22:16:28.504Z,2.23
2019-02-08T22:18:58.939Z,2.22
2019-02-08T22:21:30.604Z,2.25
2019-02-08T22:24:01.112Z,2.27
2019-02-08T22:29:01.973Z,2.21
2019-02-08T22:31:32.544Z,2.15
2019-02-08T22:34:02.819Z,2.16
2019-02-08T22:36:33.801Z,2.13
2019-02-08T22:39:06.524Z,2.15
2019-02-08T22:41:39.336Z,2.19
2019-02-08T22:44:10.255Z,2.17
2019-02-08T22:46:41.015Z,2.21
2019-02-08T22:49:15.876Z,2.15
2019-02-08T22:51:50.036Z,2.06
2019-02-08T22:54:23.381Z,2.03
2019-02-08T22:56:53.999Z,2.02
2019-02-08T22:59:24.463Z,2.02
2019-02-08T23:01:56.074Z,2.05
2019-02-08T23:04:26.581Z,2.04
2019-02-08T23:06:57.205Z,2.04
2019-02-08T23:09:27.825Z,2.02
2019-02-08T23:12:01.873Z,1.95
2019-02-08T23:14:33.110Z,1.95
2019-02-08T23:17:04.045Z,1.96
2019-02-08T23:19:34.876Z,1.92
2019-02-08T23:22:05.742Z,1.88
2019-02-08T23:24:35.510Z,1.83
2019-02-08T23:27:06.189Z,1.70
2019-02-08T23:29:36.955Z,1.71
2019-02-08T23:32:08.145Z,1.65
2019-02-08T23:34:39.192Z,1.52
2019-02-08T23:37:10.155Z,1.38
2019-02-08T23:39:41.210Z,1.33
2019-02-08T23:42:13.424Z,1.38
2019-02-08T23:44:44.348Z,1.45
2019-02-08T23:47:14.819Z,1.46
2019-02-08T23:49:45.583Z,1.48
2019-02-08T23:52:16.251Z,1.47
2019-02-08T23:54:46.870Z,1.44
2019-02-08T23:57:17.576Z,1.46
2019-02-08T23:59:48.008Z,1.44
